createdAt,value
2023-11-06T00:04:05.346Z,7.80
2023-11-06T00:09:09.226Z,7.70
2023-11-06T00:14:12.281Z,7.50
2023-11-06T00:19:17.888Z,7.10
2023-11-06T00:24:20.945Z,6.90
2023-11-06T00:29:23.800Z,8.20
2023-11-06T00:34:26.681Z,9.40
2023-11-06T00:39:29.517Z,7.50
2023-11-06T00:44:32.675Z,8.50
2023-11-06T00:49:35.561Z,6.60
2023-11-06T00:54:38.444Z,8.10
2023-11-06T00:59:41.862Z,7.40
2023-11-06T01:04:45.054Z,8.20
2023-11-06T01:09:47.997Z,8.00
2023-11-06T01:14:50.891Z,7.20
2023-11-06T01:19:56.796Z,5.50
2023-11-06T01:24:59.694Z,7.20
2023-11-06T01:30:03.408Z,7.10
2023-11-06T01:35:07.007Z,7.20
2023-11-06T01:40:13.358Z,7.50
2023-11-06T01:45:16.331Z,5.80
2023-11-06T01:50:19.366Z,5.30
2023-11-06T01:55:22.604Z,7.00
2023-11-06T02:00:28.325Z,6.90
2023-11-06T02:05:32.790Z,5.90
2023-11-06T02:10:35.756Z,6.20
2023-11-06T02:15:41.026Z,5.00
2023-11-06T02:20:43.958Z,6.10
2023-11-06T02:25:47.061Z,5.20
2023-11-06T02:30:53.750Z,6.40
2023-11-06T02:35:56.663Z,5.30
2023-11-06T02:40:59.545Z,6.30
2023-11-06T02:46:02.511Z,5.60
2023-11-06T02:51:05.382Z,7.20
2023-11-06T02:56:08.413Z,7.80
2023-11-06T03:01:11.259Z,8.10
2023-11-06T03:06:14.060Z,6.50
2023-11-06T03:11:17.017Z,6.60
2023-11-06T03:16:19.976Z,6.60
2023-11-06T03:21:24.202Z,5.60
2023-11-06T03:26:27.135Z,5.20
2023-11-06T03:31:30.096Z,4.60
2023-11-06T03:36:32.897Z,3.70
2023-11-06T03:41:36.074Z,3.80
2023-11-06T03:46:40.350Z,3.50
2023-11-06T03:51:43.599Z,3.30
2023-11-06T03:56:46.561Z,3.70
2023-11-06T04:01:49.666Z,3.40
2023-11-06T04:06:52.659Z,3.60
2023-11-06T04:11:55.566Z,3.50
2023-11-06T04:16:58.505Z,4.10
2023-11-06T04:22:01.832Z,3.70
2023-11-06T04:27:05.135Z,3.10
2023-11-06T04:32:08.256Z,3.70
2023-11-06T04:37:13.862Z,3.10
2023-11-06T04:42:16.860Z,4.40
2023-11-06T04:47:19.769Z,4.30
2023-11-06T04:52:22.942Z,4.20
2023-11-06T04:57:25.755Z,4.60
2023-11-06T05:02:28.707Z,4.30
2023-11-06T05:07:31.564Z,4.30
2023-11-06T05:12:34.427Z,4.20
2023-11-06T05:17:37.469Z,4.20
2023-11-06T05:22:43.261Z,4.00
2023-11-06T05:27:46.114Z,3.80
2023-11-06T05:32:49.485Z,3.50
2023-11-06T05:37:53.445Z,4.20
2023-11-06T05:42:58.697Z,4.60
2023-11-06T05:48:01.593Z,4.30
2023-11-06T05:53:05.931Z,3.40
2023-11-06T05:58:09.105Z,3.60
2023-11-06T06:03:12.166Z,3.50
2023-11-06T06:08:16.682Z,3.70
2023-11-06T06:13:21.096Z,4.20
2023-11-06T06:18:23.999Z,3.40
2023-11-06T06:23:26.884Z,4.00
2023-11-06T06:28:30.142Z,3.90
2023-11-06T06:33:33.189Z,3.80
2023-11-06T06:38:36.056Z,2.90
2023-11-06T06:43:38.947Z,2.90
2023-11-06T06:48:41.936Z,3.20
2023-11-06T06:53:45.104Z,3.40
2023-11-06T06:58:48.216Z,3.80
2023-11-06T07:03:53.225Z,2.90
2023-11-06T07:08:58.520Z,2.80
2023-11-06T07:14:01.719Z,2.90
2023-11-06T07:19:06.747Z,3.60
2023-11-06T07:24:10.816Z,3.70
2023-11-06T07:29:13.835Z,2.90
2023-11-06T07:34:19.338Z,2.90
2023-11-06T07:39:23.847Z,2.60
2023-11-06T07:44:29.305Z,3.00
2023-11-06T07:49:33.861Z,2.50
2023-11-06T07:54:41.931Z,2.20
2023-11-06T07:59:44.965Z,2.60
2023-11-06T08:04:48.585Z,2.60
2023-11-06T08:09:51.727Z,2.60
2023-11-06T08:14:55.895Z,2.70
2023-11-06T08:19:59.279Z,2.70
2023-11-06T08:25:02.150Z,2.20
2023-11-06T08:30:06.406Z,2.70
2023-11-06T08:35:12.577Z,2.60
2023-11-06T08:40:21.372Z,5.30
2023-11-06T08:45:24.848Z,3.40
2023-11-06T08:50:30.950Z,3.00
2023-11-06T08:55:34.927Z,2.50
2023-11-06T09:00:44.067Z,2.70
2023-11-06T09:05:55.140Z,3.00
2023-11-06T09:10:58.293Z,2.50
2023-11-06T09:16:04.679Z,2.40
2023-11-06T09:21:13.470Z,2.40
2023-11-06T09:26:16.572Z,2.00
2023-11-06T09:31:22.082Z,2.10
2023-11-06T09:36:25.552Z,2.20
2023-11-06T09:41:29.838Z,2.30
2023-11-06T09:46:33.065Z,2.20
2023-11-06T09:51:41.803Z,2.30
2023-11-06T09:56:52.731Z,2.70
2023-11-06T10:01:56.288Z,2.30
2023-11-06T10:07:00.390Z,3.00
2023-11-06T10:12:17.728Z,3.20
2023-11-06T10:17:24.417Z,3.40
2023-11-06T10:22:28.963Z,3.30
2023-11-06T10:27:32.180Z,3.70
2023-11-06T10:32:36.467Z,3.70
2023-11-06T10:37:43.530Z,4.40
2023-11-06T10:42:51.009Z,5.10
2023-11-06T10:47:58.084Z,4.20
2023-11-06T10:53:07.431Z,3.70
2023-11-06T10:58:11.897Z,3.10
2023-11-06T11:03:16.265Z,3.30
2023-11-06T11:08:22.450Z,3.70
2023-11-06T11:13:26.016Z,3.30
2023-11-06T11:18:30.727Z,3.30
2023-11-06T11:23:42.077Z,3.30
2023-11-06T11:28:58.336Z,3.80
2023-11-06T11:34:02.382Z,4.10
2023-11-06T11:39:17.347Z,4.50
2023-11-06T11:44:21.161Z,3.60
2023-11-06T11:49:50.385Z,3.60
2023-11-06T11:54:53.714Z,3.00
2023-11-06T11:59:57.676Z,3.30
2023-11-06T12:05:13.398Z,3.00
2023-11-06T12:10:17.964Z,3.20
2023-11-06T12:15:32.121Z,3.30
2023-11-06T12:20:35.649Z,3.30
2023-11-06T12:25:40.302Z,3.60
2023-11-06T12:30:44.741Z,2.80
2023-11-06T12:35:49.178Z,3.00
2023-11-06T12:41:01.474Z,3.40
2023-11-06T12:46:05.780Z,2.60
2023-11-06T12:51:11.998Z,2.80
2023-11-06T12:56:18.991Z,2.60
2023-11-06T13:01:23.930Z,2.90
2023-11-06T13:06:29.901Z,2.50
2023-11-06T13:11:38.540Z,2.70
2023-11-06T13:16:43.226Z,2.70
2023-11-06T13:21:46.918Z,2.90
2023-11-06T13:26:49.905Z,2.80
2023-11-06T13:32:00.829Z,2.80
2023-11-06T13:37:03.739Z,2.70
2023-11-06T13:42:10.980Z,2.90
2023-11-06T13:47:14.398Z,2.90
2023-11-06T13:52:30.287Z,3.00
2023-11-06T13:57:37.733Z,3.00
2023-11-06T14:02:41.769Z,3.10
2023-11-06T14:07:48.179Z,2.80
2023-11-06T14:12:51.895Z,3.90
2023-11-06T14:17:55.886Z,3.00
2023-11-06T14:22:58.682Z,2.90
2023-11-06T14:28:02.363Z,2.80
2023-11-06T14:33:07.634Z,3.70
2023-11-06T14:38:12.706Z,3.20
2023-11-06T14:43:19.737Z,3.10
2023-11-06T14:48:25.239Z,3.10
2023-11-06T14:53:37.512Z,3.50
2023-11-06T14:58:43.717Z,3.00
2023-11-06T15:03:47.122Z,3.00
2023-11-06T15:08:50.131Z,3.70
2023-11-06T15:13:53.084Z,3.50
2023-11-06T15:18:59.743Z,3.30
2023-11-06T15:24:08.421Z,2.90
2023-11-06T15:29:11.497Z,3.10
2023-11-06T15:34:14.567Z,2.80
2023-11-06T15:39:17.659Z,2.90
2023-11-06T15:44:20.567Z,3.70
2023-11-06T15:49:23.554Z,3.30
2023-11-06T15:54:26.465Z,2.80
2023-11-06T15:59:31.117Z,2.80
2023-11-06T16:04:34.089Z,3.00
2023-11-06T16:09:37.906Z,2.90
2023-11-06T16:14:40.862Z,3.10
2023-11-06T16:19:43.712Z,2.90
2023-11-06T16:24:47.178Z,3.50
2023-11-06T16:29:50.055Z,7.80
2023-11-06T16:34:52.937Z,5.40
2023-11-06T16:39:55.850Z,3.50
2023-11-06T16:44:59.835Z,3.80
2023-11-06T16:50:02.768Z,17.10
2023-11-06T16:55:07.783Z,9.40
2023-11-06T17:00:14.097Z,4.40
2023-11-06T17:10:20.735Z,4.00
2023-11-06T17:15:23.548Z,3.30
2023-11-06T17:20:26.582Z,3.00
2023-11-06T17:25:29.621Z,3.70
2023-11-06T17:30:32.397Z,5.70
2023-11-06T17:35:35.329Z,17.90
2023-11-06T17:40:40.821Z,4.70
2023-11-06T17:45:43.824Z,4.00
2023-11-06T17:50:46.819Z,4.00
2023-11-06T17:55:50.258Z,3.80
2023-11-06T18:00:53.104Z,8.40
2023-11-06T18:05:56.027Z,8.50
2023-11-06T18:10:59.216Z,5.80
2023-11-06T18:16:02.328Z,3.60
2023-11-06T18:21:06.791Z,4.20
2023-11-06T18:26:09.850Z,3.30
2023-11-06T18:31:12.711Z,4.00
2023-11-06T18:36:16.196Z,4.50
2023-11-06T18:41:19.648Z,2.70
2023-11-06T18:46:22.614Z,4.10
2023-11-06T18:51:25.867Z,3.80
2023-11-06T18:56:30.414Z,3.20
2023-11-06T19:01:34.088Z,3.50
2023-11-06T19:06:36.906Z,4.20
2023-11-06T19:11:40.083Z,3.50
2023-11-06T19:16:42.916Z,3.70
2023-11-06T19:21:45.758Z,3.30
2023-11-06T19:26:52.196Z,4.10
2023-11-06T19:31:55.326Z,3.50
2023-11-06T19:36:58.599Z,3.50
2023-11-06T19:42:01.977Z,4.60
2023-11-06T19:47:05.112Z,4.20
2023-11-06T19:52:08.068Z,4.00
2023-11-06T19:57:14.740Z,4.30
2023-11-06T20:02:18.588Z,3.30
2023-11-06T20:07:21.562Z,4.10
2023-11-06T20:12:24.494Z,3.20
2023-11-06T20:17:27.360Z,3.90
2023-11-06T20:22:30.510Z,4.20
2023-11-06T20:27:34.012Z,3.80
2023-11-06T20:32:37.027Z,4.20
2023-11-06T20:37:40.978Z,3.40
2023-11-06T20:42:43.833Z,3.50
2023-11-06T20:47:48.319Z,4.80
2023-11-06T20:52:51.483Z,3.50
2023-11-06T20:57:57.902Z,3.40
2023-11-06T21:03:00.840Z,3.40
2023-11-06T21:08:04.013Z,4.10
2023-11-06T21:13:07.106Z,4.00
2023-11-06T21:18:13.957Z,4.50
2023-11-06T21:23:16.986Z,4.10
2023-11-06T21:28:19.922Z,5.20
2023-11-06T21:33:22.857Z,4.10
2023-11-06T21:38:27.733Z,3.40
2023-11-06T21:43:30.587Z,4.10
2023-11-06T21:48:37.296Z,3.30
2023-11-06T21:53:40.248Z,3.30
2023-11-06T21:58:43.117Z,3.70
2023-11-06T22:03:46.045Z,4.40
2023-11-06T22:08:50.064Z,3.40
2023-11-06T22:13:53.428Z,4.00
2023-11-06T22:18:56.490Z,5.40
2023-11-06T22:23:59.379Z,3.70
2023-11-06T22:29:02.415Z,4.00
2023-11-06T22:34:05.429Z,3.40
2023-11-06T22:39:09.383Z,3.80
2023-11-06T22:44:12.248Z,3.30
2023-11-06T22:49:15.161Z,2.90
2023-11-06T22:54:18.395Z,3.40
2023-11-06T22:59:21.689Z,3.30
2023-11-06T23:04:24.616Z,2.90
2023-11-06T23:09:29.381Z,3.00
2023-11-06T23:14:32.715Z,2.90
2023-11-06T23:19:35.648Z,2.80
2023-11-06T23:24:38.481Z,3.00
2023-11-06T23:29:41.320Z,2.70
2023-11-06T23:34:44.144Z,2.40
2023-11-06T23:39:47.832Z,2.30
2023-11-06T23:44:50.884Z,2.40
2023-11-06T23:49:55.000Z,2.30
2023-11-06T23:54:58.395Z,2.30
